高雄終端管制區 - 高雄雷達席

METAR RCKH 120230Z VRB03KT 9999 FEW016 28/15 Q1017 NOSIG RMK A3004=

站台狀態:Online
最後更新:2019-11-12 10:30:01